createdAt,value
2023-04-07T00:04:16.021Z,6.78
2023-04-07T00:09:19.295Z,6.72
2023-04-07T00:14:22.446Z,6.57
2023-04-07T00:19:25.593Z,6.48
2023-04-07T00:24:34.295Z,6.37
2023-04-07T00:29:37.760Z,6.37
2023-04-07T00:34:42.312Z,6.27
2023-04-07T00:39:45.774Z,6.25
2023-04-07T00:44:48.792Z,6.23
2023-04-07T00:49:51.702Z,6.37
2023-04-07T00:54:55.573Z,6.41
2023-04-07T00:59:58.907Z,6.53
2023-04-07T01:05:23.754Z,6.49
2023-04-07T01:10:38.024Z,6.37
2023-04-07T01:15:53.037Z,6.07
2023-04-07T01:21:04.241Z,5.78
2023-04-07T01:26:20.415Z,5.75
2023-04-07T01:31:26.906Z,5.77
2023-04-07T01:36:33.957Z,5.72
2023-04-07T01:41:39.407Z,5.55
2023-04-07T01:46:42.406Z,5.36
2023-04-07T01:51:50.643Z,5.55
2023-04-07T01:56:53.630Z,5.56
2023-04-07T02:01:57.785Z,5.63
2023-04-07T02:07:05.967Z,5.61
2023-04-07T02:12:17.438Z,5.50
2023-04-07T02:17:35.138Z,5.28
2023-04-07T02:22:43.093Z,5.15
2023-04-07T02:27:46.058Z,5.05
2023-04-07T02:33:07.808Z,5.30
2023-04-07T02:38:11.184Z,5.32
2023-04-07T02:43:32.453Z,5.38
2023-04-07T02:48:35.409Z,5.40
2023-04-07T02:53:38.583Z,5.27
2023-04-07T02:58:41.645Z,5.10
2023-04-07T03:03:45.411Z,5.05
2023-04-07T03:08:53.474Z,5.29
2023-04-07T03:13:56.877Z,5.33
2023-04-07T03:19:00.630Z,5.00
2023-04-07T03:24:06.915Z,5.22
2023-04-07T03:29:09.762Z,5.23
2023-04-07T03:34:13.474Z,5.26
2023-04-07T03:39:16.667Z,5.44
2023-04-07T03:44:20.665Z,5.39
2023-04-07T03:49:23.466Z,5.21
2023-04-07T03:54:27.797Z,5.59
2023-04-07T03:59:31.328Z,5.50
2023-04-07T04:04:38.461Z,5.53
2023-04-07T04:09:42.592Z,5.74
2023-04-07T04:15:03.938Z,5.70
2023-04-07T04:20:08.203Z,5.81
2023-04-07T04:25:20.872Z,5.87
2023-04-07T04:30:28.155Z,5.82
2023-04-07T04:35:35.754Z,5.85
2023-04-07T04:40:51.585Z,5.77
2023-04-07T04:45:59.997Z,5.89
2023-04-07T04:51:21.568Z,6.26
2023-04-07T04:56:30.130Z,6.63
2023-04-07T05:01:33.588Z,7.00
2023-04-07T05:06:50.042Z,7.44
2023-04-07T05:11:56.263Z,7.60
2023-04-07T05:17:01.082Z,7.21
2023-04-07T05:22:04.882Z,7.81
2023-04-07T05:27:15.697Z,8.21
2023-04-07T05:32:19.841Z,8.41
2023-04-07T05:37:23.800Z,8.71
2023-04-07T05:42:27.025Z,8.80
2023-04-07T05:47:32.669Z,8.85
2023-04-07T05:52:36.513Z,9.20
2023-04-07T05:57:51.631Z,9.36
2023-04-07T06:02:57.928Z,9.55
2023-04-07T06:08:02.255Z,9.44
2023-04-07T06:13:23.913Z,9.67
2023-04-07T06:18:26.959Z,9.89
2023-04-07T06:23:29.946Z,10.01
2023-04-07T06:28:33.650Z,9.76
2023-04-07T06:33:36.937Z,9.63
2023-04-07T06:38:39.970Z,9.73
2023-04-07T06:43:44.200Z,10.05
2023-04-07T06:49:05.869Z,10.63
2023-04-07T06:54:12.989Z,10.96
2023-04-07T06:59:15.976Z,10.99
2023-04-07T07:04:18.927Z,10.63
2023-04-07T07:09:40.635Z,10.66
2023-04-07T07:14:43.513Z,10.68
2023-04-07T07:19:46.289Z,10.60
2023-04-07T07:24:49.201Z,11.11
2023-04-07T07:29:52.352Z,11.19
2023-04-07T07:34:55.203Z,11.38
2023-04-07T07:39:58.212Z,11.77
2023-04-07T07:45:00.969Z,11.75
2023-04-07T07:50:05.201Z,11.78
2023-04-07T07:55:08.734Z,11.52
2023-04-07T08:00:12.367Z,11.88
2023-04-07T08:05:18.343Z,12.06
2023-04-07T08:10:22.117Z,12.44
2023-04-07T08:15:25.036Z,12.50
2023-04-07T08:20:28.764Z,12.62
2023-04-07T08:25:50.242Z,12.03
2023-04-07T08:30:53.409Z,12.33
2023-04-07T08:35:56.345Z,12.74
2023-04-07T08:41:06.803Z,12.65
2023-04-07T08:46:10.910Z,12.86
2023-04-07T08:51:15.016Z,13.16
2023-04-07T08:56:18.805Z,13.11
2023-04-07T09:01:22.911Z,13.10
2023-04-07T09:06:27.575Z,13.01
2023-04-07T09:11:35.495Z,13.08
2023-04-07T09:16:39.979Z,13.61
2023-04-07T09:21:53.742Z,13.11
2023-04-07T09:27:10.565Z,13.44
2023-04-07T09:32:36.286Z,13.49
2023-04-07T09:37:39.293Z,13.78
2023-04-07T09:43:02.330Z,12.91
2023-04-07T09:48:09.634Z,13.44
2023-04-07T09:53:12.654Z,13.65
2023-04-07T09:58:16.813Z,13.94
2023-04-07T10:03:20.026Z,13.87
2023-04-07T10:08:23.126Z,14.18
2023-04-07T10:13:26.657Z,14.29
2023-04-07T10:18:33.660Z,14.41
2023-04-07T10:24:05.237Z,14.16
2023-04-07T10:29:12.202Z,14.12
2023-04-07T10:34:15.332Z,14.00
2023-04-07T10:39:18.415Z,14.40
2023-04-07T10:44:50.834Z,14.57
2023-04-07T10:50:15.994Z,14.45
2023-04-07T10:55:33.851Z,14.66
2023-04-07T11:00:36.682Z,14.71
2023-04-07T11:05:41.053Z,14.89
2023-04-07T11:10:48.589Z,14.50
2023-04-07T11:15:52.579Z,13.85
2023-04-07T11:21:00.941Z,14.24
2023-04-07T11:26:04.206Z,14.55
2023-04-07T11:31:07.636Z,14.93
2023-04-07T11:36:11.415Z,14.99
2023-04-07T11:41:16.286Z,14.95
2023-04-07T11:46:19.579Z,15.13
2023-04-07T11:51:24.170Z,14.70
2023-04-07T11:56:28.280Z,14.79
2023-04-07T12:01:45.221Z,15.05
2023-04-07T12:06:49.254Z,15.57
2023-04-07T12:11:52.202Z,15.89
2023-04-07T12:16:57.076Z,16.64
2023-04-07T12:22:00.115Z,16.93
2023-04-07T12:27:03.417Z,17.24
2023-04-07T12:32:06.321Z,17.96
2023-04-07T12:37:09.422Z,18.00
2023-04-07T12:42:12.491Z,17.36
2023-04-07T12:47:15.301Z,17.82
2023-04-07T12:52:17.932Z,17.61
2023-04-07T12:57:20.875Z,17.70
2023-04-07T13:02:24.945Z,17.64
2023-04-07T13:07:27.923Z,17.97
2023-04-07T13:12:30.601Z,17.76
2023-04-07T13:17:34.425Z,17.65
2023-04-07T13:22:46.125Z,17.36
2023-04-07T13:27:52.190Z,17.84
2023-04-07T13:32:54.948Z,18.61
2023-04-07T13:37:58.092Z,17.94
2023-04-07T13:43:01.335Z,18.53
2023-04-07T13:48:04.565Z,18.89
2023-04-07T13:53:07.671Z,18.21
2023-04-07T13:58:10.564Z,18.14
2023-04-07T14:03:13.664Z,17.84
2023-04-07T14:08:18.364Z,18.56
2023-04-07T14:13:21.352Z,17.99
2023-04-07T14:18:25.034Z,17.65
2023-04-07T14:23:36.797Z,17.79
2023-04-07T14:28:41.849Z,17.88
2023-04-07T14:33:50.143Z,17.54
2023-04-07T14:38:54.490Z,17.02
2023-04-07T14:43:57.602Z,17.05
2023-04-07T14:49:00.512Z,16.80
2023-04-07T14:54:03.344Z,16.59
2023-04-07T14:59:24.800Z,16.44
2023-04-07T15:04:27.708Z,16.47
2023-04-07T15:09:31.607Z,15.96
2023-04-07T15:14:34.489Z,15.74
2023-04-07T15:19:37.396Z,15.30
2023-04-07T15:24:40.523Z,14.62
2023-04-07T15:29:43.464Z,14.34
2023-04-07T15:34:47.674Z,14.04
2023-04-07T15:39:51.409Z,13.78
2023-04-07T15:44:54.212Z,13.48
2023-04-07T15:49:57.210Z,13.12
2023-04-07T15:55:00.140Z,12.90
2023-04-07T16:00:03.619Z,12.69
2023-04-07T16:05:09.171Z,12.38
2023-04-07T16:10:12.887Z,12.38
2023-04-07T16:15:25.885Z,12.31
2023-04-07T16:20:39.815Z,12.01
2023-04-07T16:25:42.707Z,11.85
2023-04-07T16:30:45.668Z,11.62
2023-04-07T16:35:48.740Z,11.34
2023-04-07T16:41:03.397Z,11.15
2023-04-07T16:46:07.612Z,11.31
2023-04-07T16:51:10.680Z,10.91
2023-04-07T16:56:22.755Z,10.86
2023-04-07T17:01:28.701Z,10.78
2023-04-07T17:06:31.987Z,10.61
2023-04-07T17:11:42.095Z,10.61
2023-04-07T17:16:45.078Z,10.50
2023-04-07T17:22:06.196Z,10.43
2023-04-07T17:27:09.013Z,10.31
2023-04-07T17:32:11.944Z,10.26
2023-04-07T17:37:14.975Z,10.28
2023-04-07T17:42:18.243Z,10.16
2023-04-07T17:47:21.127Z,10.06
2023-04-07T17:52:24.148Z,10.03
2023-04-07T17:57:27.043Z,9.85
2023-04-07T18:02:30.357Z,9.80
2023-04-07T18:07:33.578Z,9.84
2023-04-07T18:12:36.529Z,9.72
2023-04-07T18:17:39.456Z,9.73
2023-04-07T18:22:42.652Z,9.52
2023-04-07T18:27:45.538Z,9.48
2023-04-07T18:32:49.697Z,9.39
2023-04-07T18:37:52.841Z,9.38
2023-04-07T18:42:56.078Z,9.40
2023-04-07T18:47:58.960Z,9.21
2023-04-07T18:53:02.202Z,9.16
2023-04-07T18:58:05.287Z,9.02
2023-04-07T19:03:08.394Z,8.91
2023-04-07T19:08:11.552Z,8.87
2023-04-07T19:13:16.370Z,8.72
2023-04-07T19:18:19.358Z,8.73
2023-04-07T19:23:22.879Z,8.61
2023-04-07T19:28:25.942Z,8.57
2023-04-07T19:33:28.910Z,8.63
2023-04-07T19:38:32.231Z,8.52
2023-04-07T19:43:35.612Z,8.53
2023-04-07T19:48:38.455Z,8.57
2023-04-07T19:53:41.487Z,8.43
2023-04-07T19:58:44.335Z,8.51
2023-04-07T20:03:47.369Z,8.33
2023-04-07T20:08:51.142Z,8.28
2023-04-07T20:13:54.011Z,8.25
2023-04-07T20:18:56.705Z,8.13
2023-04-07T20:23:59.585Z,8.23
2023-04-07T20:29:02.723Z,7.92
2023-04-07T20:34:05.790Z,7.83
2023-04-07T20:39:08.544Z,7.65
2023-04-07T20:44:12.381Z,7.60
2023-04-07T20:49:15.195Z,7.72
2023-04-07T20:54:18.201Z,7.64
2023-04-07T20:59:21.155Z,7.58
2023-04-07T21:04:24.866Z,7.56
2023-04-07T21:09:27.801Z,7.48
2023-04-07T21:14:32.236Z,7.50
2023-04-07T21:19:35.083Z,7.58
2023-04-07T21:24:37.905Z,7.57
2023-04-07T21:29:42.681Z,7.45
2023-04-07T21:34:45.677Z,7.38
2023-04-07T21:39:48.686Z,7.12
2023-04-07T21:44:52.043Z,7.07
2023-04-07T21:49:54.997Z,7.16
2023-04-07T21:54:57.940Z,7.11
2023-04-07T22:00:00.868Z,7.13
2023-04-07T22:05:05.296Z,7.30
2023-04-07T22:10:08.688Z,7.23
2023-04-07T22:15:12.529Z,7.17
2023-04-07T22:20:15.742Z,7.03
2023-04-07T22:25:18.456Z,6.95
2023-04-07T22:30:21.450Z,7.05
2023-04-07T22:35:24.320Z,6.94
2023-04-07T22:40:27.147Z,6.86
2023-04-07T22:45:31.799Z,6.77
2023-04-07T22:50:34.857Z,6.76
2023-04-07T22:55:37.608Z,6.75
2023-04-07T23:00:40.582Z,6.63
2023-04-07T23:05:43.488Z,6.65
2023-04-07T23:10:46.336Z,6.57
2023-04-07T23:16:14.851Z,6.44
2023-04-07T23:21:17.745Z,6.46
2023-04-07T23:26:21.153Z,6.21
2023-04-07T23:31:23.990Z,6.06
2023-04-07T23:36:27.405Z,6.08
2023-04-07T23:41:30.228Z,6.08
2023-04-07T23:46:51.774Z,6.00
2023-04-07T23:51:54.520Z,5.91
2023-04-07T23:56:57.378Z,5.92
